createdAt,value
2022-10-29T00:06:24.990Z,2.90
2022-10-29T00:11:24.999Z,3.60
2022-10-29T00:16:24.996Z,3.60
2022-10-29T00:21:24.995Z,3.60
2022-10-29T00:26:25.001Z,3.90
2022-10-29T00:36:25.014Z,3.90
2022-10-29T00:41:26.121Z,3.80
2022-10-29T00:46:25.076Z,3.80
2022-10-29T00:51:25.012Z,3.80
2022-10-29T01:01:25.141Z,3.10
2022-10-29T01:16:25.034Z,3.70
2022-10-29T01:21:25.015Z,3.70
2022-10-29T01:26:25.040Z,3.60
2022-10-29T01:36:25.025Z,3.60
2022-10-29T01:46:25.033Z,3.50
2022-10-29T01:51:25.033Z,3.50
2022-10-29T01:56:25.031Z,3.40
2022-10-29T02:06:25.032Z,3.40
2022-10-29T02:11:25.038Z,3.70
2022-10-29T02:16:25.057Z,3.70
2022-10-29T02:21:25.043Z,3.70
2022-10-29T02:36:25.051Z,3.70
2022-10-29T02:46:25.048Z,4.40
2022-10-29T02:51:25.058Z,4.40
2022-10-29T02:56:25.065Z,3.20
2022-10-29T03:01:25.176Z,3.20
2022-10-29T03:06:25.065Z,3.20
2022-10-29T03:11:25.057Z,4.00
2022-10-29T03:21:25.074Z,4.00
2022-10-29T03:26:25.065Z,3.70
2022-10-29T03:36:25.131Z,3.70
2022-10-29T03:41:25.086Z,3.50
2022-10-29T03:46:25.073Z,3.50
2022-10-29T03:56:25.098Z,3.60
2022-10-29T04:01:26.469Z,3.60
2022-10-29T04:06:25.079Z,3.60
2022-10-29T04:11:25.095Z,4.20
2022-10-29T04:23:54.402Z,4.20
2022-10-29T04:31:25.098Z,3.90
2022-10-29T04:36:25.099Z,3.90
2022-10-29T04:41:25.099Z,4.10
2022-10-29T04:46:26.628Z,4.10
2022-10-29T04:51:25.093Z,4.10
2022-10-29T04:56:25.100Z,3.90
2022-10-29T05:01:25.314Z,3.90
2022-10-29T05:06:25.102Z,3.90
2022-10-29T05:16:25.112Z,4.20
2022-10-29T05:21:25.099Z,4.20
2022-10-29T05:26:25.118Z,4.80
2022-10-29T05:31:25.116Z,4.80
2022-10-29T05:51:25.114Z,4.50
2022-10-29T06:01:25.183Z,4.30
2022-10-29T06:06:25.430Z,4.30
2022-10-29T06:11:25.133Z,4.20
2022-10-29T06:31:25.122Z,4.40
2022-10-29T06:36:25.126Z,4.40
2022-10-29T06:41:25.149Z,4.00
2022-10-29T06:51:25.162Z,4.00
2022-10-29T07:06:25.132Z,5.50
2022-10-29T07:16:25.137Z,4.70
2022-10-29T07:21:25.144Z,4.70
2022-10-29T07:26:25.165Z,3.70
2022-10-29T07:31:25.152Z,3.70
2022-10-29T07:36:25.165Z,3.70
2022-10-29T07:51:25.159Z,5.10
2022-10-29T07:56:25.166Z,6.60
2022-10-29T08:01:25.292Z,6.60
2022-10-29T08:06:25.190Z,6.60
2022-10-29T08:11:25.168Z,4.80
2022-10-29T08:16:25.164Z,4.80
2022-10-29T08:21:25.159Z,4.80
2022-10-29T08:26:35.374Z,7.30
2022-10-29T08:31:25.174Z,7.30
2022-10-29T08:36:25.189Z,7.30
2022-10-29T08:46:25.172Z,5.90
2022-10-29T08:51:25.183Z,5.90
2022-10-29T09:01:25.297Z,7.80
2022-10-29T09:11:25.184Z,7.20
2022-10-29T09:16:25.204Z,7.20
2022-10-29T09:21:25.189Z,7.20
2022-10-29T09:31:25.200Z,8.40
2022-10-29T09:36:25.208Z,8.40
2022-10-29T09:41:25.446Z,8.40
2022-10-29T09:46:25.192Z,8.40
2022-10-29T09:51:25.204Z,8.40
2022-10-29T09:56:25.209Z,7.70
2022-10-29T10:01:25.274Z,7.70
2022-10-29T10:06:25.194Z,7.70
2022-10-29T10:11:25.212Z,8.00
2022-10-29T10:16:25.209Z,8.00
2022-10-29T10:21:25.214Z,8.00
2022-10-29T10:26:25.208Z,8.20
2022-10-29T10:31:25.227Z,8.20
2022-10-29T10:36:25.226Z,8.20
2022-10-29T10:41:25.219Z,8.40
2022-10-29T10:51:25.229Z,8.40
2022-10-29T10:56:25.220Z,7.90
2022-10-29T11:01:25.351Z,7.90
2022-10-29T11:06:25.223Z,7.90
2022-10-29T11:11:25.220Z,7.50
2022-10-29T11:16:25.231Z,7.50
2022-10-29T11:21:25.232Z,7.50
2022-10-29T11:26:25.233Z,6.80
2022-10-29T11:31:25.251Z,6.80
2022-10-29T11:36:25.349Z,6.80
2022-10-29T11:41:25.238Z,4.40
2022-10-29T11:46:25.231Z,4.40
2022-10-29T11:51:25.241Z,4.40
2022-10-29T11:56:25.239Z,6.00
2022-10-29T12:01:25.305Z,6.00
2022-10-29T12:06:26.591Z,6.00
2022-10-29T12:11:25.259Z,6.10
2022-10-29T12:16:25.253Z,6.10
2022-10-29T12:21:25.249Z,6.10
2022-10-29T12:26:25.244Z,6.20
2022-10-29T12:31:25.290Z,6.20
2022-10-29T12:36:25.271Z,6.20
2022-10-29T12:41:25.277Z,6.50
2022-10-29T12:46:25.261Z,6.50
2022-10-29T12:51:25.281Z,6.50
2022-10-29T12:56:25.258Z,4.30
2022-10-29T13:01:38.157Z,4.30
2022-10-29T13:06:25.268Z,4.30
2022-10-29T13:11:25.272Z,5.70
2022-10-29T13:16:25.266Z,5.70
2022-10-29T13:21:25.276Z,5.70
2022-10-29T13:31:25.383Z,5.10
2022-10-29T13:36:25.274Z,5.10
2022-10-29T13:41:25.287Z,4.50
2022-10-29T13:46:25.293Z,4.50
2022-10-29T13:56:25.279Z,4.50
2022-10-29T14:01:25.409Z,4.50
2022-10-29T14:06:25.291Z,4.50
2022-10-29T14:11:25.296Z,4.70
2022-10-29T14:16:25.299Z,4.70
2022-10-29T14:21:25.307Z,4.70
2022-10-29T14:26:25.302Z,5.30
2022-10-29T14:31:25.310Z,5.30
2022-10-29T14:36:25.312Z,5.30
2022-10-29T14:41:25.309Z,4.60
2022-10-29T14:56:25.312Z,5.40
2022-10-29T15:06:25.318Z,5.40
2022-10-29T15:16:25.330Z,5.80
2022-10-29T15:21:25.319Z,5.80
2022-10-29T15:36:25.322Z,5.90
2022-10-29T15:41:25.337Z,5.90
2022-10-29T15:51:25.329Z,5.90
2022-10-29T15:56:25.340Z,7.10
2022-10-29T16:01:25.547Z,7.10
2022-10-29T16:06:25.335Z,7.10
2022-10-29T16:11:26.601Z,5.30
2022-10-29T16:16:25.339Z,5.30
2022-10-29T16:26:25.361Z,5.90
2022-10-29T16:31:25.342Z,5.90
2022-10-29T16:41:25.351Z,6.00
2022-10-29T16:46:25.353Z,6.00
2022-10-29T16:56:25.362Z,5.50
2022-10-29T17:11:25.364Z,6.40
2022-10-29T17:16:25.454Z,6.40
2022-10-29T17:26:25.386Z,4.90
2022-10-29T17:31:25.373Z,4.90
2022-10-29T17:36:25.373Z,4.90
2022-10-29T18:11:25.381Z,5.90
2022-10-29T18:16:25.392Z,5.90
2022-10-29T18:26:25.385Z,5.80
2022-10-29T18:31:25.400Z,5.80
2022-10-29T18:36:25.396Z,5.80
2022-10-29T18:41:25.404Z,7.00
2022-10-29T18:51:25.407Z,7.00
2022-10-29T18:56:25.413Z,6.30
2022-10-29T19:01:25.650Z,6.30
2022-10-29T19:06:25.417Z,6.30
2022-10-29T19:11:25.419Z,6.50
2022-10-29T19:16:26.025Z,6.50
2022-10-29T19:21:25.413Z,6.50
2022-10-29T19:26:25.453Z,6.60
2022-10-29T19:31:25.432Z,6.60
2022-10-29T19:41:25.416Z,6.80
2022-10-29T19:46:25.422Z,6.80
2022-10-29T19:51:25.428Z,6.80
2022-10-29T19:56:25.439Z,5.10
2022-10-29T20:01:25.548Z,5.10
2022-10-29T20:11:25.445Z,5.40
2022-10-29T20:26:28.197Z,5.30
2022-10-29T20:31:27.861Z,5.30
2022-10-29T20:36:25.530Z,5.30
2022-10-29T20:51:25.442Z,5.80
2022-10-29T21:11:25.459Z,5.40
2022-10-29T21:16:25.458Z,5.40
2022-10-29T21:26:25.466Z,5.70
2022-10-29T21:31:25.454Z,5.70
2022-10-29T21:36:25.463Z,5.70
2022-10-29T21:56:25.476Z,6.20
2022-10-29T22:01:25.586Z,6.20
2022-10-29T22:11:25.485Z,5.60
2022-10-29T22:16:25.477Z,5.60
2022-10-29T22:51:25.504Z,5.60
2022-10-29T22:56:25.506Z,5.00
2022-10-29T23:06:25.525Z,5.00
2022-10-29T23:11:25.523Z,5.20
2022-10-29T23:16:25.500Z,5.20
2022-10-29T23:21:25.504Z,5.20
2022-10-29T23:26:25.522Z,5.30
2022-10-29T23:36:25.513Z,5.30
2022-10-29T23:41:25.523Z,4.80
2022-10-29T23:46:25.506Z,4.80
2022-10-29T23:51:25.568Z,4.80
